Terminal Aerodrome Forecast
Issued by NWS San Angelo, TX

Home | Current Version | Previous Version | Text Only | Print | Product List | Glossary On
Versions: 1 2 3 4 5 6 7 8 9 10 11 12
000
FTUS44 KSJT 171100
TAFSJT
TAF
KSJT 171129Z 1712/1812 17010G20KT P6SM OVC018 WS015/18045KT
     FM171500 16016G22KT P6SM OVC028
     FM172200 10008KT P6SM OVC040
     FM180400 04008KT P6SM OVC018=

USA.gov is the U.S. government's official web portal to all federal, state and local government web resources and services.